Airfield :
LOGIN :

Register | Disclaimer

   EN    FR    IT 

 










Legend :    VFR   Marginal VFR   IFR   Intensive IFR   Very Intensive IFR
Visi :
Ceiling :
>= 8 km
>= 3000ft
5 to 8 km
1000 to 3000 ft
1500m to 5 km
500 to 1000 ft
800 to 1500m
200 to 500 ft
< 800m
< 200 ft
Symbols :   Thunderstorms  Fog  Heavy snow  Heavy precipitations  Wind > 20 kt
SIGMETs :     Misc.  Thunderstorms  Icing  Turbulence  Mountain Waves  Volcanic Ashes






- Airport Elevation : 124 ft
- IATA code : RNS


LFRN - Rennes

CURRENT METAR :
  • 021400Z AUTO 35011KT 300V020 9999 OVC049 11/00 Q1018 NOSIG

EXPIRED METARs :
  • 021330Z AUTO VRB09KT 9999 OVC049 11/00 Q1018 NOSIG
  • 021300Z AUTO 33009KT 290V360 9999 OVC048 11/00 Q1018 NOSIG
  • 021230Z AUTO 36010KT 330V030 9999 OVC049 10/M00 Q1018 NOSIG
  • 021200Z AUTO 34009KT 310V020 9999 OVC047 10/00 Q1019 NOSIG
  • 021130Z AUTO 01008KT 330V050 9999 OVC049 10/M00 Q1019 NOSIG

TAF TAF LFRN
Valid from the 02 at 12:00 until the 03 at 12:00 UTC


021100Z 0212/0312 01008KT 9999 BKN045
BECMG 0215/0217 CAVOK
TEMPO 0301/0308 4000 BR BKN007
PROB30
TEMPO 0303/0306 0600 FG BKN002
BECMG 0308/0310 SCT018 BKN040
TEMPO 0309/0312 -SHRA SCT020TCU
ATIS : +33 2 99 67 72 50



MET'MAP, your aeronautical weather chart ! - Copyright ORBIFLY December 2007 - Disclaimer

ORBIFLY MET'MAP TEAM :

Programming & Development : Alexandra Zaïnal
Concept & original design : Baudouin d'Aumeries
Assistance for programming : Marc-Olivier Méhu
Technical & hardware support : Manuel Goepfert

Contact : metmap@orbifly.com




SOURCES & CREDITS :

   NOAA